Louisville, Kentucky
Current Conditions -  °F | °C
As of 8:56 AM on Sunday 21 Dec 2014 (Local Time) from KSDF Reporting Station
Haze Haze  
Wind Chill: -2°   Ceiling: Unl
Heat Index: -2°   Visibility: 4mi
Dew Point: -4°   Wind: 0mph
Humidity: 85%   Direction: NA
Pressure: 30.31"   Gusts: NA
Location:  38.25°N, 85.77°W
Report Text: KSDF 211356Z 00000KT 4SM BR FEW250 M02/M04 A3031 RMK AO2 SLP268 T10171039
Loading
Personal Weather Stations






























Interactive Weather Map New forecast layout! Learn more

10-Day Weather Forecast

Advertisements
Track Severe Weather on mobile